sensor_id;sensor_type;location;lat;lon;timestamp;P1;durP1;ratioP1;P2;durP2;ratioP2
10319;SDS011;5205;52.168;5.420;2024-02-28T00:00:12;37.55;;;14.68;;
10319;SDS011;5205;52.168;5.420;2024-02-28T00:02:39;39.72;;;15.40;;
10319;SDS011;5205;52.168;5.420;2024-02-28T00:05:07;31.65;;;13.38;;
10319;SDS011;5205;52.168;5.420;2024-02-28T00:07:36;33.75;;;15.25;;
10319;SDS011;5205;52.168;5.420;2024-02-28T00:10:03;33.92;;;14.02;;
10319;SDS011;5205;52.168;5.420;2024-02-28T00:12:30;33.38;;;15.05;;
10319;SDS011;5205;52.168;5.420;2024-02-28T00:14:59;31.75;;;12.98;;
10319;SDS011;5205;52.168;5.420;2024-02-28T00:17:26;32.45;;;14.25;;
10319;SDS011;5205;52.168;5.420;2024-02-28T00:19:53;31.98;;;14.10;;
10319;SDS011;5205;52.168;5.420;2024-02-28T00:24:48;37.30;;;14.77;;
10319;SDS011;5205;52.168;5.420;2024-02-28T00:27:15;34.80;;;13.63;;
10319;SDS011;5205;52.168;5.420;2024-02-28T00:29:42;36.92;;;14.07;;
10319;SDS011;5205;52.168;5.420;2024-02-28T00:32:11;33.90;;;14.50;;
10319;SDS011;5205;52.168;5.420;2024-02-28T00:34:38;32.45;;;13.40;;
10319;SDS011;5205;52.168;5.420;2024-02-28T00:37:05;39.97;;;15.40;;
10319;SDS011;5205;52.168;5.420;2024-02-28T00:39:32;33.97;;;13.65;;
10319;SDS011;5205;52.168;5.420;2024-02-28T00:44:27;28.90;;;12.70;;
10319;SDS011;5205;52.168;5.420;2024-02-28T00:46:54;35.17;;;14.98;;
10319;SDS011;5205;52.168;5.420;2024-02-28T00:49:21;35.70;;;15.07;;
10319;SDS011;5205;52.168;5.420;2024-02-28T00:51:48;41.58;;;13.60;;
10319;SDS011;5205;52.168;5.420;2024-02-28T00:54:15;32.63;;;14.43;;
10319;SDS011;5205;52.168;5.420;2024-02-28T00:56:42;33.42;;;12.77;;
10319;SDS011;5205;52.168;5.420;2024-02-28T00:59:10;36.80;;;15.57;;
10319;SDS011;5205;52.168;5.420;2024-02-28T01:01:39;36.50;;;14.38;;
10319;SDS011;5205;52.168;5.420;2024-02-28T01:04:06;36.90;;;16.35;;
10319;SDS011;5205;52.168;5.420;2024-02-28T01:06:33;33.80;;;14.90;;
10319;SDS011;5205;52.168;5.420;2024-02-28T01:09:00;37.03;;;15.45;;
10319;SDS011;5205;52.168;5.420;2024-02-28T01:11:28;34.00;;;15.52;;
10319;SDS011;5205;52.168;5.420;2024-02-28T01:13:55;35.67;;;14.07;;
10319;SDS011;5205;52.168;5.420;2024-02-28T01:16:22;30.95;;;12.50;;
10319;SDS011;5205;52.168;5.420;2024-02-28T01:18:52;33.22;;;13.75;;
10319;SDS011;5205;52.168;5.420;2024-02-28T01:21:19;33.45;;;14.55;;
10319;SDS011;5205;52.168;5.420;2024-02-28T01:23:45;38.90;;;15.23;;
10319;SDS011;5205;52.168;5.420;2024-02-28T01:26:12;34.67;;;13.35;;
10319;SDS011;5205;52.168;5.420;2024-02-28T01:28:39;35.20;;;14.43;;
10319;SDS011;5205;52.168;5.420;2024-02-28T01:31:08;32.97;;;13.38;;
10319;SDS011;5205;52.168;5.420;2024-02-28T01:33:35;33.28;;;13.77;;
10319;SDS011;5205;52.168;5.420;2024-02-28T01:36:04;31.50;;;13.38;;
10319;SDS011;5205;52.168;5.420;2024-02-28T01:38:31;37.70;;;14.85;;
10319;SDS011;5205;52.168;5.420;2024-02-28T01:40:58;33.08;;;13.93;;
10319;SDS011;5205;52.168;5.420;2024-02-28T01:43:25;33.63;;;14.95;;
10319;SDS011;5205;52.168;5.420;2024-02-28T01:45:52;36.90;;;15.25;;
10319;SDS011;5205;52.168;5.420;2024-02-28T01:48:19;35.63;;;14.52;;
10319;SDS011;5205;52.168;5.420;2024-02-28T01:50:46;31.83;;;13.30;;
10319;SDS011;5205;52.168;5.420;2024-02-28T01:53:15;37.08;;;15.55;;
10319;SDS011;5205;52.168;5.420;2024-02-28T01:55:42;39.30;;;14.75;;
10319;SDS011;5205;52.168;5.420;2024-02-28T01:58:09;40.47;;;16.40;;
10319;SDS011;5205;52.168;5.420;2024-02-28T02:03:04;35.80;;;14.07;;
10319;SDS011;5205;52.168;5.420;2024-02-28T02:07:58;42.65;;;15.35;;
10319;SDS011;5205;52.168;5.420;2024-02-28T02:12:53;35.70;;;13.73;;
10319;SDS011;5205;52.168;5.420;2024-02-28T02:15:21;42.78;;;15.57;;
10319;SDS011;5205;52.168;5.420;2024-02-28T02:17:48;34.45;;;15.50;;
10319;SDS011;5205;52.168;5.420;2024-02-28T02:20:15;50.53;;;15.27;;
10319;SDS011;5205;52.168;5.420;2024-02-28T02:22:44;43.83;;;15.82;;
10319;SDS011;5205;52.168;5.420;2024-02-28T02:25:11;51.28;;;16.73;;
10319;SDS011;5205;52.168;5.420;2024-02-28T02:27:38;59.28;;;16.77;;
10319;SDS011;5205;52.168;5.420;2024-02-28T02:30:06;43.42;;;15.63;;
10319;SDS011;5205;52.168;5.420;2024-02-28T02:32:33;58.42;;;15.45;;
10319;SDS011;5205;52.168;5.420;2024-02-28T02:35:00;77.53;;;17.10;;
10319;SDS011;5205;52.168;5.420;2024-02-28T02:39:55;43.53;;;13.13;;
10319;SDS011;5205;52.168;5.420;2024-02-28T02:42:23;33.05;;;14.63;;
10319;SDS011;5205;52.168;5.420;2024-02-28T02:44:50;35.08;;;14.65;;
10319;SDS011;5205;52.168;5.420;2024-02-28T02:47:17;40.95;;;13.82;;
10319;SDS011;5205;52.168;5.420;2024-02-28T02:49:44;31.90;;;13.85;;
10319;SDS011;5205;52.168;5.420;2024-02-28T02:52:11;35.60;;;14.80;;
10319;SDS011;5205;52.168;5.420;2024-02-28T02:54:38;31.25;;;14.38;;
10319;SDS011;5205;52.168;5.420;2024-02-28T02:57:06;27.35;;;12.07;;
10319;SDS011;5205;52.168;5.420;2024-02-28T02:59:33;30.70;;;13.55;;
10319;SDS011;5205;52.168;5.420;2024-02-28T03:02:00;26.75;;;12.57;;
10319;SDS011;5205;52.168;5.420;2024-02-28T03:04:29;25.38;;;12.20;;
10319;SDS011;5205;52.168;5.420;2024-02-28T03:06:56;28.33;;;13.40;;
10319;SDS011;5205;52.168;5.420;2024-02-28T03:09:23;27.35;;;13.52;;
10319;SDS011;5205;52.168;5.420;2024-02-28T03:11:50;26.70;;;12.55;;
10319;SDS011;5205;52.168;5.420;2024-02-28T03:14:19;27.88;;;12.13;;
10319;SDS011;5205;52.168;5.420;2024-02-28T03:16:47;29.60;;;13.85;;
10319;SDS011;5205;52.168;5.420;2024-02-28T03:19:14;29.38;;;12.55;;
10319;SDS011;5205;52.168;5.420;2024-02-28T03:21:41;25.35;;;12.60;;
10319;SDS011;5205;52.168;5.420;2024-02-28T03:24:08;26.55;;;13.07;;
10319;SDS011;5205;52.168;5.420;2024-02-28T03:26:35;22.48;;;11.73;;
10319;SDS011;5205;52.168;5.420;2024-02-28T03:29:02;26.52;;;12.23;;
10319;SDS011;5205;52.168;5.420;2024-02-28T03:31:31;25.25;;;12.45;;
10319;SDS011;5205;52.168;5.420;2024-02-28T03:33:58;27.02;;;11.77;;
10319;SDS011;5205;52.168;5.420;2024-02-28T03:36:25;23.85;;;12.10;;
10319;SDS011;5205;52.168;5.420;2024-02-28T03:38:52;23.73;;;11.05;;
10319;SDS011;5205;52.168;5.420;2024-02-28T03:41:19;23.85;;;11.88;;
10319;SDS011;5205;52.168;5.420;2024-02-28T03:43:46;26.77;;;12.63;;
10319;SDS011;5205;52.168;5.420;2024-02-28T03:46:13;23.80;;;11.98;;
10319;SDS011;5205;52.168;5.420;2024-02-28T03:48:42;24.38;;;12.70;;
10319;SDS011;5205;52.168;5.420;2024-02-28T03:51:09;25.63;;;12.85;;
10319;SDS011;5205;52.168;5.420;2024-02-28T03:53:36;25.67;;;12.27;;
10319;SDS011;5205;52.168;5.420;2024-02-28T03:56:03;23.98;;;12.30;;
10319;SDS011;5205;52.168;5.420;2024-02-28T03:58:30;26.42;;;13.57;;
10319;SDS011;5205;52.168;5.420;2024-02-28T04:00:57;25.55;;;12.27;;
10319;SDS011;5205;52.168;5.420;2024-02-28T04:03:24;21.77;;;11.95;;
10319;SDS011;5205;52.168;5.420;2024-02-28T04:05:53;24.83;;;11.52;;
10319;SDS011;5205;52.168;5.420;2024-02-28T04:08:20;22.85;;;12.77;;
10319;SDS011;5205;52.168;5.420;2024-02-28T04:10:47;25.83;;;12.10;;
10319;SDS011;5205;52.168;5.420;2024-02-28T04:13:15;24.88;;;12.07;;
10319;SDS011;5205;52.168;5.420;2024-02-28T04:15:42;24.60;;;10.73;;
10319;SDS011;5205;52.168;5.420;2024-02-28T04:18:10;25.40;;;12.65;;
10319;SDS011;5205;52.168;5.420;2024-02-28T04:20:37;25.25;;;12.07;;
10319;SDS011;5205;52.168;5.420;2024-02-28T04:23:06;22.85;;;11.10;;
10319;SDS011;5205;52.168;5.420;2024-02-28T04:25:33;24.60;;;11.27;;
10319;SDS011;5205;52.168;5.420;2024-02-28T04:28:00;23.83;;;12.00;;
10319;SDS011;5205;52.168;5.420;2024-02-28T04:30:28;23.45;;;11.63;;
10319;SDS011;5205;52.168;5.420;2024-02-28T04:32:55;22.83;;;11.40;;
10319;SDS011;5205;52.168;5.420;2024-02-28T04:35:22;21.05;;;10.63;;
10319;SDS011;5205;52.168;5.420;2024-02-28T04:37:49;25.65;;;12.73;;
10319;SDS011;5205;52.168;5.420;2024-02-28T04:40:17;22.95;;;12.40;;
10319;SDS011;5205;52.168;5.420;2024-02-28T04:42:44;23.48;;;11.80;;
10319;SDS011;5205;52.168;5.420;2024-02-28T04:47:38;21.58;;;10.70;;
10319;SDS011;5205;52.168;5.420;2024-02-28T04:50:06;21.15;;;11.48;;
10319;SDS011;5205;52.168;5.420;2024-02-28T04:52:33;20.45;;;11.07;;
10319;SDS011;5205;52.168;5.420;2024-02-28T04:57:28;20.17;;;9.25;;
10319;SDS011;5205;52.168;5.420;2024-02-28T04:59:55;25.55;;;11.60;;
10319;SDS011;5205;52.168;5.420;2024-02-28T05:02:23;19.77;;;10.07;;
10319;SDS011;5205;52.168;5.420;2024-02-28T05:04:50;18.92;;;10.18;;
10319;SDS011;5205;52.168;5.420;2024-02-28T05:07:17;18.85;;;11.02;;
10319;SDS011;5205;52.168;5.420;2024-02-28T05:09:45;20.67;;;11.07;;
10319;SDS011;5205;52.168;5.420;2024-02-28T05:12:12;20.02;;;9.77;;
10319;SDS011;5205;52.168;5.420;2024-02-28T05:14:40;22.65;;;11.38;;
10319;SDS011;5205;52.168;5.420;2024-02-28T05:17:07;20.95;;;10.40;;
10319;SDS011;5205;52.168;5.420;2024-02-28T05:19:34;18.08;;;11.13;;
10319;SDS011;5205;52.168;5.420;2024-02-28T05:22:01;21.05;;;10.60;;
10319;SDS011;5205;52.168;5.420;2024-02-28T05:24:28;19.60;;;11.13;;
10319;SDS011;5205;52.168;5.420;2024-02-28T05:26:55;18.90;;;11.18;;
10319;SDS011;5205;52.168;5.420;2024-02-28T05:29:22;22.90;;;11.20;;
10319;SDS011;5205;52.168;5.420;2024-02-28T05:31:52;19.50;;;11.38;;
10319;SDS011;5205;52.168;5.420;2024-02-28T05:34:19;19.50;;;10.95;;
10319;SDS011;5205;52.168;5.420;2024-02-28T05:39:13;19.00;;;10.27;;
10319;SDS011;5205;52.168;5.420;2024-02-28T05:41:40;18.85;;;10.90;;
10319;SDS011;5205;52.168;5.420;2024-02-28T05:44:08;20.10;;;10.88;;
10319;SDS011;5205;52.168;5.420;2024-02-28T05:46:35;17.08;;;9.75;;
10319;SDS011;5205;52.168;5.420;2024-02-28T05:49:04;20.08;;;10.73;;
10319;SDS011;5205;52.168;5.420;2024-02-28T05:51:31;17.88;;;10.13;;
10319;SDS011;5205;52.168;5.420;2024-02-28T05:53:58;20.35;;;10.40;;
10319;SDS011;5205;52.168;5.420;2024-02-28T05:56:25;18.65;;;10.60;;
10319;SDS011;5205;52.168;5.420;2024-02-28T06:01:19;20.50;;;9.63;;
10319;SDS011;5205;52.168;5.420;2024-02-28T06:03:46;18.92;;;10.40;;
10319;SDS011;5205;52.168;5.420;2024-02-28T06:06:15;20.55;;;11.40;;
10319;SDS011;5205;52.168;5.420;2024-02-28T06:08:42;17.25;;;10.55;;
10319;SDS011;5205;52.168;5.420;2024-02-28T06:11:09;20.55;;;12.35;;
10319;SDS011;5205;52.168;5.420;2024-02-28T06:13:37;19.45;;;11.65;;
10319;SDS011;5205;52.168;5.420;2024-02-28T06:16:04;17.83;;;10.93;;
10319;SDS011;5205;52.168;5.420;2024-02-28T06:20:59;21.40;;;10.68;;
10319;SDS011;5205;52.168;5.420;2024-02-28T06:23:28;22.10;;;10.13;;
10319;SDS011;5205;52.168;5.420;2024-02-28T06:25:55;18.58;;;9.65;;
10319;SDS011;5205;52.168;5.420;2024-02-28T06:28:22;22.75;;;10.98;;
10319;SDS011;5205;52.168;5.420;2024-02-28T06:33:16;18.05;;;9.40;;
10319;SDS011;5205;52.168;5.420;2024-02-28T06:35:43;20.42;;;10.60;;
10319;SDS011;5205;52.168;5.420;2024-02-28T06:38:10;18.80;;;10.20;;
10319;SDS011;5205;52.168;5.420;2024-02-28T06:40:39;18.25;;;10.38;;
10319;SDS011;5205;52.168;5.420;2024-02-28T06:43:06;23.58;;;11.80;;
10319;SDS011;5205;52.168;5.420;2024-02-28T06:45:33;23.55;;;11.05;;
10319;SDS011;5205;52.168;5.420;2024-02-28T06:48:01;20.17;;;11.48;;
10319;SDS011;5205;52.168;5.420;2024-02-28T06:50:28;24.23;;;11.73;;
10319;SDS011;5205;52.168;5.420;2024-02-28T06:55:22;16.77;;;9.30;;
10319;SDS011;5205;52.168;5.420;2024-02-28T06:57:51;21.15;;;11.00;;
10319;SDS011;5205;52.168;5.420;2024-02-28T07:00:18;20.02;;;11.43;;
10319;SDS011;5205;52.168;5.420;2024-02-28T07:02:45;20.00;;;10.45;;
10319;SDS011;5205;52.168;5.420;2024-02-28T07:07:39;17.58;;;9.25;;
10319;SDS011;5205;52.168;5.420;2024-02-28T07:12:33;16.33;;;9.32;;
10319;SDS011;5205;52.168;5.420;2024-02-28T07:17:29;24.05;;;10.65;;
10319;SDS011;5205;52.168;5.420;2024-02-28T07:19:56;18.77;;;10.15;;
10319;SDS011;5205;52.168;5.420;2024-02-28T07:24:50;19.90;;;10.88;;
10319;SDS011;5205;52.168;5.420;2024-02-28T07:27:17;19.90;;;10.55;;
10319;SDS011;5205;52.168;5.420;2024-02-28T07:29:44;22.55;;;11.75;;
10319;SDS011;5205;52.168;5.420;2024-02-28T07:32:11;17.70;;;10.73;;
10319;SDS011;5205;52.168;5.420;2024-02-28T07:37:06;19.38;;;11.15;;
10319;SDS011;5205;52.168;5.420;2024-02-28T07:39:33;23.15;;;10.55;;
10319;SDS011;5205;52.168;5.420;2024-02-28T07:44:27;15.80;;;9.20;;
10319;SDS011;5205;52.168;5.420;2024-02-28T07:46:55;18.58;;;11.18;;
10319;SDS011;5205;52.168;5.420;2024-02-28T07:49:22;21.63;;;10.98;;
10319;SDS011;5205;52.168;5.420;2024-02-28T07:51:50;22.02;;;10.68;;
10319;SDS011;5205;52.168;5.420;2024-02-28T07:54:18;19.33;;;11.18;;
10319;SDS011;5205;52.168;5.420;2024-02-28T07:56:45;24.88;;;11.95;;
10319;SDS011;5205;52.168;5.420;2024-02-28T08:01:39;18.25;;;11.90;;
10319;SDS011;5205;52.168;5.420;2024-02-28T08:06:33;16.83;;;9.93;;
10319;SDS011;5205;52.168;5.420;2024-02-28T08:11:30;17.25;;;10.05;;
10319;SDS011;5205;52.168;5.420;2024-02-28T08:13:57;19.15;;;10.77;;
10319;SDS011;5205;52.168;5.420;2024-02-28T08:18:51;18.20;;;10.07;;
10319;SDS011;5205;52.168;5.420;2024-02-28T08:23:45;21.05;;;11.23;;
10319;SDS011;5205;52.168;5.420;2024-02-28T08:26:12;16.83;;;10.48;;
10319;SDS011;5205;52.168;5.420;2024-02-28T08:28:41;17.45;;;10.95;;
10319;SDS011;5205;52.168;5.420;2024-02-28T08:31:08;19.60;;;11.02;;
10319;SDS011;5205;52.168;5.420;2024-02-28T08:33:35;19.38;;;9.80;;
10319;SDS011;5205;52.168;5.420;2024-02-28T08:38:29;19.27;;;11.20;;
10319;SDS011;5205;52.168;5.420;2024-02-28T08:43:23;17.95;;;10.13;;
10319;SDS011;5205;52.168;5.420;2024-02-28T08:45:52;21.45;;;10.88;;
10319;SDS011;5205;52.168;5.420;2024-02-28T08:48:20;17.77;;;10.13;;
10319;SDS011;5205;52.168;5.420;2024-02-28T08:50:47;17.30;;;11.52;;
10319;SDS011;5205;52.168;5.420;2024-02-28T08:53:15;18.77;;;10.13;;
10319;SDS011;5205;52.168;5.420;2024-02-28T08:55:42;18.98;;;11.00;;
10319;SDS011;5205;52.168;5.420;2024-02-28T08:58:09;16.55;;;10.20;;
10319;SDS011;5205;52.168;5.420;2024-02-28T09:00:36;19.25;;;11.23;;
10319;SDS011;5205;52.168;5.420;2024-02-28T09:03:05;17.42;;;10.88;;
10319;SDS011;5205;52.168;5.420;2024-02-28T09:05:32;19.60;;;11.55;;
10319;SDS011;5205;52.168;5.420;2024-02-28T09:07:59;20.60;;;12.25;;
10319;SDS011;5205;52.168;5.420;2024-02-28T09:10:27;18.10;;;11.23;;
10319;SDS011;5205;52.168;5.420;2024-02-28T09:12:56;18.25;;;10.73;;
10319;SDS011;5205;52.168;5.420;2024-02-28T09:15:23;21.77;;;12.73;;
10319;SDS011;5205;52.168;5.420;2024-02-28T09:17:50;17.75;;;10.88;;
10319;SDS011;5205;52.168;5.420;2024-02-28T09:20:19;17.15;;;11.38;;
10319;SDS011;5205;52.168;5.420;2024-02-28T09:22:46;19.70;;;10.05;;
10319;SDS011;5205;52.168;5.420;2024-02-28T09:25:13;20.65;;;11.48;;
10319;SDS011;5205;52.168;5.420;2024-02-28T09:27:41;17.80;;;11.32;;
10319;SDS011;5205;52.168;5.420;2024-02-28T09:30:08;21.23;;;12.50;;
10319;SDS011;5205;52.168;5.420;2024-02-28T09:32:35;18.63;;;11.43;;
10319;SDS011;5205;52.168;5.420;2024-02-28T09:35:02;16.00;;;11.52;;
10319;SDS011;5205;52.168;5.420;2024-02-28T09:37:31;22.38;;;12.90;;
10319;SDS011;5205;52.168;5.420;2024-02-28T09:39:58;19.58;;;12.57;;
10319;SDS011;5205;52.168;5.420;2024-02-28T09:42:26;24.10;;;13.43;;
10319;SDS011;5205;52.168;5.420;2024-02-28T09:44:53;21.23;;;12.82;;
10319;SDS011;5205;52.168;5.420;2024-02-28T09:47:21;23.13;;;13.25;;
10319;SDS011;5205;52.168;5.420;2024-02-28T09:49:48;21.35;;;12.82;;
10319;SDS011;5205;52.168;5.420;2024-02-28T09:52:17;22.75;;;12.48;;
10319;SDS011;5205;52.168;5.420;2024-02-28T09:54:45;23.67;;;13.98;;
10319;SDS011;5205;52.168;5.420;2024-02-28T09:57:12;17.88;;;11.75;;
10319;SDS011;5205;52.168;5.420;2024-02-28T09:59:40;24.83;;;14.65;;
10319;SDS011;5205;52.168;5.420;2024-02-28T10:02:08;21.80;;;12.48;;
10319;SDS011;5205;52.168;5.420;2024-02-28T10:04:37;23.60;;;13.00;;
10319;SDS011;5205;52.168;5.420;2024-02-28T10:07:10;22.75;;;11.95;;
10319;SDS011;5205;52.168;5.420;2024-02-28T10:09:38;24.85;;;13.75;;
10319;SDS011;5205;52.168;5.420;2024-02-28T10:12:07;22.77;;;12.23;;
10319;SDS011;5205;52.168;5.420;2024-02-28T10:14:34;15.85;;;11.10;;
10319;SDS011;5205;52.168;5.420;2024-02-28T10:17:02;20.98;;;13.30;;
10319;SDS011;5205;52.168;5.420;2024-02-28T10:19:29;23.08;;;12.13;;
10319;SDS011;5205;52.168;5.420;2024-02-28T10:21:56;19.98;;;12.27;;
10319;SDS011;5205;52.168;5.420;2024-02-28T10:24:23;22.75;;;13.23;;
10319;SDS011;5205;52.168;5.420;2024-02-28T10:26:51;19.52;;;11.82;;
10319;SDS011;5205;52.168;5.420;2024-02-28T10:29:22;19.48;;;11.85;;
10319;SDS011;5205;52.168;5.420;2024-02-28T10:31:50;23.75;;;11.63;;
10319;SDS011;5205;52.168;5.420;2024-02-28T10:34:17;17.45;;;12.07;;
10319;SDS011;5205;52.168;5.420;2024-02-28T10:36:44;20.20;;;11.05;;
10319;SDS011;5205;52.168;5.420;2024-02-28T10:39:11;22.75;;;12.20;;
10319;SDS011;5205;52.168;5.420;2024-02-28T10:41:39;17.90;;;12.55;;
10319;SDS011;5205;52.168;5.420;2024-02-28T10:44:06;20.95;;;12.15;;
10319;SDS011;5205;52.168;5.420;2024-02-28T10:46:35;20.88;;;12.90;;
10319;SDS011;5205;52.168;5.420;2024-02-28T10:49:02;19.58;;;12.88;;
10319;SDS011;5205;52.168;5.420;2024-02-28T10:51:29;24.10;;;11.93;;
10319;SDS011;5205;52.168;5.420;2024-02-28T10:54:08;20.77;;;11.73;;
10319;SDS011;5205;52.168;5.420;2024-02-28T10:56:36;24.00;;;12.85;;
10319;SDS011;5205;52.168;5.420;2024-02-28T10:59:06;22.15;;;13.77;;
10319;SDS011;5205;52.168;5.420;2024-02-28T11:01:35;24.83;;;13.88;;
10319;SDS011;5205;52.168;5.420;2024-02-28T11:04:02;22.90;;;12.85;;
10319;SDS011;5205;52.168;5.420;2024-02-28T11:06:30;26.48;;;14.13;;
10319;SDS011;5205;52.168;5.420;2024-02-28T11:08:58;21.83;;;13.10;;
10319;SDS011;5205;52.168;5.420;2024-02-28T11:11:29;20.25;;;13.15;;
10319;SDS011;5205;52.168;5.420;2024-02-28T11:13:57;22.15;;;12.68;;
10319;SDS011;5205;52.168;5.420;2024-02-28T11:16:26;24.65;;;12.85;;
10319;SDS011;5205;52.168;5.420;2024-02-28T11:18:55;21.00;;;12.23;;
10319;SDS011;5205;52.168;5.420;2024-02-28T11:21:25;23.88;;;13.50;;
10319;SDS011;5205;52.168;5.420;2024-02-28T11:23:52;23.98;;;15.20;;
10319;SDS011;5205;52.168;5.420;2024-02-28T11:26:19;26.60;;;14.23;;
10319;SDS011;5205;52.168;5.420;2024-02-28T11:28:46;27.40;;;13.10;;
10319;SDS011;5205;52.168;5.420;2024-02-28T11:31:14;20.55;;;13.07;;
10319;SDS011;5205;52.168;5.420;2024-02-28T11:33:41;21.05;;;12.85;;
10319;SDS011;5205;52.168;5.420;2024-02-28T11:36:09;27.17;;;13.30;;
10319;SDS011;5205;52.168;5.420;2024-02-28T11:38:38;24.67;;;14.77;;
10319;SDS011;5205;52.168;5.420;2024-02-28T11:41:05;24.25;;;13.85;;
10319;SDS011;5205;52.168;5.420;2024-02-28T11:43:33;23.95;;;12.63;;
10319;SDS011;5205;52.168;5.420;2024-02-28T11:46:00;22.88;;;13.40;;
10319;SDS011;5205;52.168;5.420;2024-02-28T11:48:29;21.13;;;13.25;;
10319;SDS011;5205;52.168;5.420;2024-02-28T11:50:57;23.52;;;13.10;;
10319;SDS011;5205;52.168;5.420;2024-02-28T11:53:26;22.85;;;12.82;;
10319;SDS011;5205;52.168;5.420;2024-02-28T11:55:53;23.80;;;13.02;;
10319;SDS011;5205;52.168;5.420;2024-02-28T11:58:22;24.23;;;14.02;;
10319;SDS011;5205;52.168;5.420;2024-02-28T12:00:49;18.77;;;12.23;;
10319;SDS011;5205;52.168;5.420;2024-02-28T12:03:19;24.25;;;13.13;;
10319;SDS011;5205;52.168;5.420;2024-02-28T12:05:47;21.55;;;11.85;;
10319;SDS011;5205;52.168;5.420;2024-02-28T12:08:14;24.15;;;12.95;;
10319;SDS011;5205;52.168;5.420;2024-02-28T12:10:42;22.38;;;13.15;;
10319;SDS011;5205;52.168;5.420;2024-02-28T12:13:09;24.35;;;12.13;;
10319;SDS011;5205;52.168;5.420;2024-02-28T12:15:38;26.00;;;13.27;;
10319;SDS011;5205;52.168;5.420;2024-02-28T12:18:07;21.23;;;12.40;;
10319;SDS011;5205;52.168;5.420;2024-02-28T12:20:35;23.42;;;12.50;;
10319;SDS011;5205;52.168;5.420;2024-02-28T12:23:03;27.55;;;13.88;;
10319;SDS011;5205;52.168;5.420;2024-02-28T12:25:30;26.50;;;14.15;;
10319;SDS011;5205;52.168;5.420;2024-02-28T12:27:59;24.33;;;12.55;;
10319;SDS011;5205;52.168;5.420;2024-02-28T12:30:26;22.13;;;11.73;;
10319;SDS011;5205;52.168;5.420;2024-02-28T12:32:53;21.15;;;11.93;;
10319;SDS011;5205;52.168;5.420;2024-02-28T12:35:20;22.13;;;12.25;;
10319;SDS011;5205;52.168;5.420;2024-02-28T12:37:47;22.38;;;12.82;;
10319;SDS011;5205;52.168;5.420;2024-02-28T12:40:16;19.83;;;10.98;;
10319;SDS011;5205;52.168;5.420;2024-02-28T12:42:43;23.90;;;12.02;;
10319;SDS011;5205;52.168;5.420;2024-02-28T12:45:11;21.92;;;11.98;;
10319;SDS011;5205;52.168;5.420;2024-02-28T12:47:39;18.80;;;10.10;;
10319;SDS011;5205;52.168;5.420;2024-02-28T12:50:06;21.17;;;11.63;;
10319;SDS011;5205;52.168;5.420;2024-02-28T12:52:34;17.42;;;9.65;;
10319;SDS011;5205;52.168;5.420;2024-02-28T12:55:02;20.15;;;10.90;;
10319;SDS011;5205;52.168;5.420;2024-02-28T12:57:29;20.13;;;11.35;;
10319;SDS011;5205;52.168;5.420;2024-02-28T12:59:56;21.20;;;10.25;;
10319;SDS011;5205;52.168;5.420;2024-02-28T13:02:24;21.50;;;11.30;;
10319;SDS011;5205;52.168;5.420;2024-02-28T13:04:51;19.38;;;11.00;;
10319;SDS011;5205;52.168;5.420;2024-02-28T13:07:18;19.45;;;10.85;;
10319;SDS011;5205;52.168;5.420;2024-02-28T13:09:47;21.30;;;12.70;;
10319;SDS011;5205;52.168;5.420;2024-02-28T13:12:15;21.20;;;11.82;;
10319;SDS011;5205;52.168;5.420;2024-02-28T13:14:42;21.50;;;12.23;;
10319;SDS011;5205;52.168;5.420;2024-02-28T13:17:09;28.45;;;12.57;;
10319;SDS011;5205;52.168;5.420;2024-02-28T13:19:38;22.23;;;12.07;;
10319;SDS011;5205;52.168;5.420;2024-02-28T13:22:05;26.73;;;12.15;;
10319;SDS011;5205;52.168;5.420;2024-02-28T13:24:32;21.85;;;11.70;;
10319;SDS011;5205;52.168;5.420;2024-02-28T13:27:00;25.77;;;11.93;;
10319;SDS011;5205;52.168;5.420;2024-02-28T13:29:27;20.17;;;11.10;;
10319;SDS011;5205;52.168;5.420;2024-02-28T13:31:56;17.85;;;11.27;;
10319;SDS011;5205;52.168;5.420;2024-02-28T13:34:23;19.52;;;10.82;;
10319;SDS011;5205;52.168;5.420;2024-02-28T13:36:52;24.50;;;11.65;;
10319;SDS011;5205;52.168;5.420;2024-02-28T13:39:19;19.92;;;11.35;;
10319;SDS011;5205;52.168;5.420;2024-02-28T13:41:48;17.92;;;11.60;;
10319;SDS011;5205;52.168;5.420;2024-02-28T13:44:16;15.88;;;9.43;;
10319;SDS011;5205;52.168;5.420;2024-02-28T13:46:43;17.88;;;10.35;;
10319;SDS011;5205;52.168;5.420;2024-02-28T13:49:11;19.05;;;11.18;;
10319;SDS011;5205;52.168;5.420;2024-02-28T13:51:39;18.65;;;10.95;;
10319;SDS011;5205;52.168;5.420;2024-02-28T13:54:07;21.98;;;10.88;;
10319;SDS011;5205;52.168;5.420;2024-02-28T13:56:34;21.02;;;11.50;;
10319;SDS011;5205;52.168;5.420;2024-02-28T13:59:02;17.88;;;10.02;;
10319;SDS011;5205;52.168;5.420;2024-02-28T14:01:31;17.30;;;10.07;;
10319;SDS011;5205;52.168;5.420;2024-02-28T14:03:58;20.17;;;11.27;;
10319;SDS011;5205;52.168;5.420;2024-02-28T14:06:25;21.40;;;12.68;;
10319;SDS011;5205;52.168;5.420;2024-02-28T14:08:53;16.77;;;10.55;;
10319;SDS011;5205;52.168;5.420;2024-02-28T14:11:21;17.77;;;11.07;;
10319;SDS011;5205;52.168;5.420;2024-02-28T14:13:49;21.60;;;11.55;;
10319;SDS011;5205;52.168;5.420;2024-02-28T14:16:16;17.98;;;11.45;;
10319;SDS011;5205;52.168;5.420;2024-02-28T14:18:44;18.23;;;10.48;;
10319;SDS011;5205;52.168;5.420;2024-02-28T14:21:11;22.25;;;11.27;;
10319;SDS011;5205;52.168;5.420;2024-02-28T14:23:38;23.10;;;11.82;;
10319;SDS011;5205;52.168;5.420;2024-02-28T14:26:06;21.92;;;12.63;;
10319;SDS011;5205;52.168;5.420;2024-02-28T14:28:34;20.83;;;11.90;;
10319;SDS011;5205;52.168;5.420;2024-02-28T14:31:02;18.65;;;12.00;;
10319;SDS011;5205;52.168;5.420;2024-02-28T14:33:29;24.90;;;12.25;;
10319;SDS011;5205;52.168;5.420;2024-02-28T14:35:57;21.20;;;12.60;;
10319;SDS011;5205;52.168;5.420;2024-02-28T14:38:25;18.17;;;11.50;;
10319;SDS011;5205;52.168;5.420;2024-02-28T14:40:52;22.13;;;12.27;;
10319;SDS011;5205;52.168;5.420;2024-02-28T14:43:19;24.17;;;12.80;;
10319;SDS011;5205;52.168;5.420;2024-02-28T14:45:47;19.40;;;11.52;;
10319;SDS011;5205;52.168;5.420;2024-02-28T14:48:14;19.23;;;10.88;;
10319;SDS011;5205;52.168;5.420;2024-02-28T14:50:41;24.00;;;12.02;;
10319;SDS011;5205;52.168;5.420;2024-02-28T14:53:09;20.27;;;10.52;;
10319;SDS011;5205;52.168;5.420;2024-02-28T14:55:36;22.30;;;11.77;;
10319;SDS011;5205;52.168;5.420;2024-02-28T14:58:04;18.77;;;11.82;;
10319;SDS011;5205;52.168;5.420;2024-02-28T15:00:31;17.95;;;10.18;;
10319;SDS011;5205;52.168;5.420;2024-02-28T15:02:59;22.38;;;10.23;;
10319;SDS011;5205;52.168;5.420;2024-02-28T15:05:26;19.60;;;11.48;;
10319;SDS011;5205;52.168;5.420;2024-02-28T15:07:53;19.08;;;9.88;;
10319;SDS011;5205;52.168;5.420;2024-02-28T15:10:21;16.73;;;9.27;;
10319;SDS011;5205;52.168;5.420;2024-02-28T15:12:48;20.08;;;10.05;;
10319;SDS011;5205;52.168;5.420;2024-02-28T15:15:15;19.10;;;10.27;;
10319;SDS011;5205;52.168;5.420;2024-02-28T15:17:42;17.80;;;10.25;;
10319;SDS011;5205;52.168;5.420;2024-02-28T15:20:11;21.70;;;9.27;;
10319;SDS011;5205;52.168;5.420;2024-02-28T15:22:44;21.25;;;9.15;;
10319;SDS011;5205;52.168;5.420;2024-02-28T15:25:11;17.15;;;8.93;;
10319;SDS011;5205;52.168;5.420;2024-02-28T15:27:38;17.38;;;8.40;;
10319;SDS011;5205;52.168;5.420;2024-02-28T15:30:06;17.77;;;9.38;;
10319;SDS011;5205;52.168;5.420;2024-02-28T15:32:34;17.52;;;9.15;;
10319;SDS011;5205;52.168;5.420;2024-02-28T15:35:04;14.50;;;8.73;;
10319;SDS011;5205;52.168;5.420;2024-02-28T15:37:33;17.52;;;8.85;;
10319;SDS011;5205;52.168;5.420;2024-02-28T15:40:00;18.13;;;9.75;;